createdAt,value
2018-11-21T00:00:41.337Z,24.20
2018-11-21T00:03:29.275Z,24.77
2018-11-21T00:06:17.109Z,24.15
2018-11-21T00:09:06.686Z,24.50
2018-11-21T00:11:54.352Z,23.95
2018-11-21T00:14:41.912Z,23.92
2018-11-21T00:17:29.532Z,23.22
2018-11-21T00:20:17.149Z,23.80
2018-11-21T00:23:05.021Z,23.60
2018-11-21T00:25:52.655Z,23.85
2018-11-21T00:28:40.823Z,23.12
2018-11-21T00:31:28.637Z,23.20
2018-11-21T00:34:16.262Z,24.80
2018-11-21T00:37:03.827Z,23.67
2018-11-21T00:39:52.207Z,24.85
2018-11-21T00:42:46.279Z,24.20
2018-11-21T00:45:27.362Z,24.70
2018-11-21T00:48:14.957Z,25.45
2018-11-21T00:51:02.711Z,24.32
2018-11-21T00:53:50.280Z,24.57
2018-11-21T00:56:38.182Z,24.53
2018-11-21T00:59:25.709Z,24.77
2018-11-21T01:02:13.277Z,24.45
2018-11-21T01:05:00.820Z,24.90
2018-11-21T01:07:48.390Z,25.43
2018-11-21T01:10:36.046Z,25.60
2018-11-21T01:13:23.745Z,25.25
2018-11-21T01:16:11.709Z,25.30
2018-11-21T01:18:59.323Z,26.17
2018-11-21T01:21:46.934Z,26.70
2018-11-21T01:24:34.516Z,26.50
2018-11-21T01:27:22.411Z,26.73
2018-11-21T01:30:09.988Z,26.02
2018-11-21T01:32:57.584Z,25.75
2018-11-21T01:35:45.164Z,26.77
2018-11-21T01:38:33.237Z,27.42
2018-11-21T01:41:13.632Z,27.05
2018-11-21T01:43:54.443Z,26.10
2018-11-21T01:46:36.259Z,25.87
2018-11-21T01:49:17.042Z,26.57
2018-11-21T01:51:57.605Z,26.75
2018-11-21T01:54:38.613Z,27.02
2018-11-21T01:57:18.766Z,27.05
2018-11-21T01:59:59.498Z,26.60
2018-11-21T02:02:39.866Z,26.80
2018-11-21T02:05:20.513Z,27.60
2018-11-21T02:08:01.472Z,27.35
2018-11-21T02:10:42.176Z,26.93
2018-11-21T02:13:22.423Z,27.17
2018-11-21T02:16:02.993Z,27.37
2018-11-21T02:18:43.333Z,29.02
2018-11-21T02:21:22.078Z,28.12
2018-11-21T02:27:03.865Z,28.93
2018-11-21T02:29:51.507Z,28.10
2018-11-21T02:32:39.080Z,28.23
2018-11-21T02:35:26.645Z,29.65
2018-11-21T02:38:14.555Z,28.07
2018-11-21T02:41:02.131Z,29.40
2018-11-21T02:43:49.666Z,29.10
2018-11-21T02:46:37.251Z,27.80
2018-11-21T02:49:25.111Z,28.90
2018-11-21T02:51:53.197Z,29.35
2018-11-21T02:54:41.095Z,29.42
2018-11-21T02:57:47.833Z,29.00
2018-11-21T03:00:35.360Z,29.98
2018-11-21T03:03:23.033Z,28.90
2018-11-21T03:06:10.622Z,28.90
2018-11-21T03:08:58.183Z,29.35
2018-11-21T03:11:45.735Z,28.83
2018-11-21T03:14:33.552Z,28.87
2018-11-21T03:17:21.104Z,28.90
2018-11-21T03:20:08.737Z,30.30
2018-11-21T03:22:56.312Z,29.60
2018-11-21T03:25:43.880Z,29.18
2018-11-21T03:28:31.487Z,30.92
2018-11-21T03:31:19.027Z,31.57
2018-11-21T03:34:06.606Z,31.07
2018-11-21T03:36:55.457Z,31.73
2018-11-21T03:39:43.817Z,30.62
2018-11-21T03:42:32.533Z,31.42
2018-11-21T03:45:39.284Z,31.35
2018-11-21T03:48:26.817Z,30.25
2018-11-21T03:51:14.359Z,30.77
2018-11-21T03:54:01.946Z,30.10
2018-11-21T03:56:49.485Z,29.87
2018-11-21T03:59:37.078Z,30.90
2018-11-21T04:02:24.641Z,31.33
2018-11-21T04:05:12.335Z,30.95
2018-11-21T04:10:53.686Z,30.47
2018-11-21T04:13:41.500Z,30.23
2018-11-21T04:16:29.035Z,29.90
2018-11-21T04:19:16.857Z,30.60
2018-11-21T04:22:04.400Z,31.48
2018-11-21T04:24:51.992Z,31.27
2018-11-21T04:27:39.880Z,31.75
2018-11-21T04:30:27.615Z,31.82
2018-11-21T04:33:15.440Z,30.55
2018-11-21T04:36:03.013Z,32.08
2018-11-21T04:38:50.656Z,31.17
2018-11-21T04:41:38.363Z,31.77
2018-11-21T04:44:25.937Z,30.50
2018-11-21T04:47:13.511Z,31.70
2018-11-21T04:50:01.102Z,31.48
2018-11-21T04:52:49.008Z,32.50
2018-11-21T04:55:36.633Z,32.13
2018-11-21T04:58:24.198Z,30.12
2018-11-21T05:01:12.097Z,32.50
2018-11-21T05:03:59.978Z,33.13
2018-11-21T05:06:47.551Z,32.45
2018-11-21T05:09:35.117Z,30.80
2018-11-21T05:12:22.926Z,32.38
2018-11-21T05:15:10.492Z,32.48
2018-11-21T05:17:58.049Z,33.42
2018-11-21T05:20:45.687Z,33.83
2018-11-21T05:23:33.329Z,33.38
2018-11-21T05:26:20.931Z,32.35
2018-11-21T05:29:08.484Z,31.75
2018-11-21T05:31:56.030Z,32.88
2018-11-21T05:34:43.599Z,32.03
2018-11-21T05:37:12.859Z,31.83
2018-11-21T05:42:54.508Z,32.35
2018-11-21T05:45:42.063Z,32.23
2018-11-21T05:48:29.654Z,32.38
2018-11-21T05:51:17.260Z,31.87
2018-11-21T05:56:58.621Z,31.97
2018-11-21T05:59:46.700Z,31.90
2018-11-21T06:02:34.255Z,31.90
2018-11-21T06:05:21.840Z,32.75
2018-11-21T06:08:09.382Z,32.13
2018-11-21T06:10:56.970Z,31.93
2018-11-21T06:13:44.534Z,32.78
2018-11-21T06:16:32.082Z,30.77
2018-11-21T06:19:19.639Z,32.38
2018-11-21T06:22:07.195Z,32.33
2018-11-21T06:27:48.313Z,31.40
2018-11-21T06:30:36.136Z,31.85
2018-11-21T06:33:23.723Z,30.70
2018-11-21T06:36:11.318Z,30.35
2018-11-21T06:38:58.870Z,30.60
2018-11-21T06:41:46.462Z,30.90
2018-11-21T06:44:34.035Z,30.17
2018-11-21T06:50:28.649Z,30.20
2018-11-21T06:53:16.225Z,30.72
2018-11-21T06:56:03.764Z,30.75
2018-11-21T06:58:55.132Z,29.60
2018-11-21T07:01:38.802Z,29.95
2018-11-21T07:04:26.331Z,29.23
2018-11-21T07:07:14.160Z,28.87
2018-11-21T07:10:01.726Z,29.12
2018-11-21T07:12:49.288Z,28.45
2018-11-21T07:15:37.080Z,28.75
2018-11-21T07:18:24.859Z,30.02
2018-11-21T07:21:12.668Z,28.60
2018-11-21T07:24:00.235Z,28.65
2018-11-21T07:26:47.899Z,27.73
2018-11-21T07:29:35.448Z,28.55
2018-11-21T07:32:42.477Z,28.70
2018-11-21T07:38:24.061Z,27.93
2018-11-21T07:41:11.656Z,28.30
2018-11-21T07:43:59.186Z,27.60
2018-11-21T07:46:46.789Z,27.30
2018-11-21T07:49:34.341Z,27.82
2018-11-21T07:52:21.915Z,26.93
2018-11-21T07:55:10.180Z,27.70
2018-11-21T07:58:00.000Z,26.37
2018-11-21T08:01:07.460Z,26.12
2018-11-21T08:03:57.091Z,26.20
2018-11-21T08:07:03.870Z,26.17
2018-11-21T08:10:03.557Z,26.33
2018-11-21T08:13:10.351Z,26.10
2018-11-21T08:16:17.138Z,25.57
2018-11-21T08:19:24.047Z,25.50
2018-11-21T08:22:31.061Z,25.03
2018-11-21T08:25:37.826Z,25.72
2018-11-21T08:28:44.565Z,25.15
2018-11-21T08:34:39.189Z,24.82
2018-11-21T08:37:27.056Z,24.90
2018-11-21T08:40:14.602Z,23.73
2018-11-21T08:43:02.273Z,24.00
2018-11-21T08:45:49.801Z,23.90
2018-11-21T08:48:37.415Z,24.12
2018-11-21T08:51:24.942Z,23.67
2018-11-21T08:54:12.505Z,23.62
2018-11-21T08:57:00.085Z,23.13
2018-11-21T08:59:47.950Z,23.32
2018-11-21T09:02:35.528Z,23.52
2018-11-21T09:05:23.389Z,22.48
2018-11-21T09:08:10.973Z,22.45
2018-11-21T09:10:58.736Z,22.65
2018-11-21T09:13:46.524Z,22.45
2018-11-21T09:16:34.082Z,21.48
2018-11-21T09:19:21.654Z,21.80
2018-11-21T09:22:09.189Z,22.93
2018-11-21T09:27:49.974Z,22.33
2018-11-21T09:30:37.524Z,21.30
2018-11-21T09:33:25.394Z,21.55
2018-11-21T09:36:12.902Z,21.55
2018-11-21T09:39:00.447Z,21.23
2018-11-21T09:41:47.981Z,20.57
2018-11-21T09:44:35.602Z,21.17
2018-11-21T09:47:24.212Z,21.05
2018-11-21T09:50:12.907Z,20.52
2018-11-21T09:53:00.444Z,20.95
2018-11-21T09:55:48.328Z,19.75
2018-11-21T09:58:35.602Z,20.32
2018-11-21T10:01:42.652Z,20.23
2018-11-21T10:04:30.205Z,20.62
2018-11-21T10:07:17.762Z,20.08
2018-11-21T10:10:05.445Z,19.70
2018-11-21T10:12:53.282Z,21.00
2018-11-21T10:15:41.401Z,20.60
2018-11-21T10:18:28.963Z,20.40
2018-11-21T10:21:35.727Z,19.77
2018-11-21T10:24:23.546Z,18.82
2018-11-21T10:27:11.088Z,18.92
2018-11-21T10:29:58.942Z,17.95
2018-11-21T10:32:46.479Z,17.75
2018-11-21T10:38:28.105Z,16.85
2018-11-21T10:41:15.698Z,17.37
2018-11-21T10:44:03.272Z,17.57
2018-11-21T10:46:50.876Z,17.57
2018-11-21T10:49:38.470Z,16.90
2018-11-21T10:52:26.640Z,17.10
2018-11-21T10:55:13.994Z,18.42
2018-11-21T10:58:02.026Z,17.85
2018-11-21T11:00:49.386Z,18.00
2018-11-21T11:03:56.191Z,16.50
2018-11-21T11:07:02.932Z,16.20
2018-11-21T11:10:00.757Z,16.12
2018-11-21T11:13:07.507Z,15.70
2018-11-21T11:16:14.243Z,16.05
2018-11-21T11:19:17.831Z,14.63
2018-11-21T11:22:24.600Z,17.30
2018-11-21T11:25:31.385Z,16.77
2018-11-21T11:28:38.292Z,16.15
2018-11-21T11:35:02.310Z,14.83
2018-11-21T11:38:09.501Z,15.60
2018-11-21T11:41:16.692Z,14.40
2018-11-21T11:44:23.961Z,15.15
2018-11-21T11:47:31.127Z,15.23
2018-11-21T11:50:38.445Z,15.50
2018-11-21T11:53:45.610Z,15.75
2018-11-21T11:56:52.832Z,14.03
2018-11-21T12:00:00.052Z,14.87
2018-11-21T12:03:07.195Z,14.78
2018-11-21T12:06:14.429Z,14.13
2018-11-21T12:09:21.683Z,14.75
2018-11-21T12:12:28.853Z,14.53
2018-11-21T12:15:36.011Z,13.58
2018-11-21T12:18:43.211Z,14.10
2018-11-21T12:21:50.369Z,14.55
2018-11-21T12:24:46.384Z,13.88
2018-11-21T12:27:39.916Z,14.38
2018-11-21T12:30:47.114Z,13.43
2018-11-21T12:33:49.975Z,14.18
2018-11-21T12:36:49.456Z,13.98
2018-11-21T12:39:41.580Z,13.80
2018-11-21T12:42:41.468Z,13.62
2018-11-21T12:45:41.170Z,13.62
2018-11-21T12:48:29.283Z,14.13
2018-11-21T12:51:36.468Z,13.78
2018-11-21T12:54:43.652Z,13.70
2018-11-21T12:57:50.810Z,13.78
2018-11-21T13:00:57.984Z,13.53
2018-11-21T13:04:05.163Z,13.75
2018-11-21T13:07:12.482Z,13.50
2018-11-21T13:10:19.711Z,13.38
2018-11-21T13:13:26.918Z,13.80
2018-11-21T13:16:34.077Z,14.68
2018-11-21T13:19:41.235Z,13.53
2018-11-21T13:22:48.388Z,13.78
2018-11-21T13:25:55.556Z,13.83
2018-11-21T13:29:02.822Z,13.03
2018-11-21T13:32:09.984Z,13.15
2018-11-21T13:35:17.181Z,13.60
2018-11-21T13:38:24.915Z,13.53
2018-11-21T13:40:52.284Z,13.70
2018-11-21T13:43:59.462Z,14.25
2018-11-21T13:47:06.632Z,13.50
2018-11-21T13:50:13.793Z,13.90
2018-11-21T13:53:21.032Z,14.00
2018-11-21T13:59:04.582Z,14.25
2018-11-21T14:04:48.612Z,13.65
2018-11-21T14:07:36.979Z,13.72
2018-11-21T14:10:25.675Z,14.07
2018-11-21T14:13:14.386Z,14.17
2018-11-21T14:16:02.781Z,13.68
2018-11-21T14:18:51.222Z,14.05
2018-11-21T14:21:39.899Z,14.90
2018-11-21T14:24:28.564Z,16.32
2018-11-21T14:30:12.444Z,16.37
2018-11-21T14:33:00.873Z,15.30
2018-11-21T14:35:52.274Z,15.18
2018-11-21T14:38:37.883Z,14.65
2018-11-21T14:41:26.313Z,14.70
2018-11-21T14:44:14.700Z,15.20
2018-11-21T14:47:03.552Z,14.85
2018-11-21T14:49:53.996Z,14.28
2018-11-21T14:52:42.388Z,14.25
2018-11-21T14:55:31.269Z,14.40
2018-11-21T14:58:19.621Z,13.93
2018-11-21T15:01:08.337Z,13.65
2018-11-21T15:03:56.696Z,13.45
2018-11-21T15:06:45.188Z,13.90
2018-11-21T15:09:33.586Z,13.05
2018-11-21T15:12:22.244Z,13.40
2018-11-21T15:15:12.286Z,14.03
2018-11-21T15:18:00.337Z,13.60
2018-11-21T15:20:48.111Z,12.82
2018-11-21T15:23:36.496Z,13.18
2018-11-21T15:26:25.033Z,12.55
2018-11-21T15:29:13.548Z,13.15
2018-11-21T15:32:01.935Z,13.40
2018-11-21T15:34:50.308Z,12.87
2018-11-21T15:37:39.172Z,12.85
2018-11-21T15:40:27.847Z,14.47
2018-11-21T15:43:16.287Z,13.88
2018-11-21T15:46:04.678Z,13.80
2018-11-21T15:51:48.004Z,12.50
2018-11-21T15:54:36.767Z,14.03
2018-11-21T16:00:22.076Z,14.07
2018-11-21T16:03:11.225Z,13.30
2018-11-21T16:05:59.703Z,12.78
2018-11-21T16:08:48.403Z,12.90
2018-11-21T16:11:36.471Z,13.48
2018-11-21T16:14:25.136Z,13.93
2018-11-21T16:17:13.521Z,13.70
2018-11-21T16:20:01.953Z,14.28
2018-11-21T16:22:50.535Z,14.10
2018-11-21T16:25:39.135Z,14.43
2018-11-21T16:28:27.565Z,13.45
2018-11-21T16:31:16.208Z,14.10
2018-11-21T16:34:04.051Z,14.90
2018-11-21T16:36:52.520Z,13.75
2018-11-21T16:39:41.733Z,14.30
2018-11-21T16:42:30.220Z,12.35
2018-11-21T16:45:20.399Z,13.13
2018-11-21T16:48:09.100Z,13.68
2018-11-21T16:50:57.739Z,14.05
2018-11-21T16:56:40.988Z,13.55
2018-11-21T16:59:29.349Z,14.73
2018-11-21T17:05:27.508Z,12.95
2018-11-21T17:08:15.893Z,12.23
2018-11-21T17:11:04.340Z,14.28
2018-11-21T17:13:52.803Z,13.72
2018-11-21T17:16:22.435Z,14.40
2018-11-21T17:22:05.540Z,13.70
2018-11-21T17:24:53.944Z,13.00
2018-11-21T17:30:51.513Z,13.25
2018-11-21T17:36:49.322Z,14.43
2018-11-21T17:39:37.727Z,14.10
2018-11-21T17:42:26.534Z,13.60
2018-11-21T17:45:15.671Z,13.77
2018-11-21T17:48:04.285Z,13.50
2018-11-21T17:50:52.657Z,13.40
2018-11-21T17:53:41.079Z,14.28
2018-11-21T17:56:29.448Z,13.00
2018-11-21T17:59:37.524Z,12.65
2018-11-21T18:02:26.425Z,12.53
2018-11-21T18:05:16.522Z,11.90
2018-11-21T18:08:04.956Z,11.83
2018-11-21T18:10:53.682Z,11.68
2018-11-21T18:13:42.100Z,12.30
2018-11-21T18:16:30.583Z,12.15
2018-11-21T18:19:19.079Z,12.07
2018-11-21T18:21:48.715Z,11.68
2018-11-21T18:24:37.175Z,11.68
2018-11-21T18:27:25.848Z,11.50
2018-11-21T18:30:16.119Z,10.93
2018-11-21T18:36:13.120Z,11.03
2018-11-21T18:39:01.526Z,11.60
2018-11-21T18:41:50.186Z,10.85
2018-11-21T18:44:38.601Z,10.55
2018-11-21T18:47:27.056Z,10.95
2018-11-21T18:50:16.405Z,11.18
2018-11-21T18:53:05.848Z,11.12
2018-11-21T18:55:56.003Z,10.95
2018-11-21T18:59:03.400Z,11.57
2018-11-21T19:01:52.085Z,12.03
2018-11-21T19:04:40.765Z,11.22
2018-11-21T19:07:29.210Z,12.40
2018-11-21T19:10:17.639Z,12.37
2018-11-21T19:13:06.265Z,12.50
2018-11-21T19:15:55.334Z,12.90
2018-11-21T19:18:43.838Z,12.90
2018-11-21T19:21:32.346Z,20.27
2018-11-21T19:24:21.148Z,25.37
2018-11-21T19:26:50.543Z,20.15
2018-11-21T19:29:39.219Z,23.50
2018-11-21T19:32:27.579Z,23.50
2018-11-21T19:35:15.967Z,19.65
2018-11-21T19:38:04.354Z,14.55
2018-11-21T19:40:34.380Z,13.93
2018-11-21T19:43:22.819Z,12.53
2018-11-21T19:46:11.196Z,13.13
2018-11-21T19:49:02.173Z,12.40
2018-11-21T19:51:51.391Z,12.40
2018-11-21T19:54:40.143Z,12.83
2018-11-21T19:57:28.491Z,12.40
2018-11-21T20:00:38.613Z,12.50
2018-11-21T20:03:27.234Z,11.93
2018-11-21T20:06:16.101Z,12.78
2018-11-21T20:09:25.073Z,13.10
2018-11-21T20:12:13.468Z,13.18
2018-11-21T20:15:01.943Z,12.75
2018-11-21T20:18:09.136Z,13.20
2018-11-21T20:20:57.758Z,13.45
2018-11-21T20:23:46.143Z,12.70
2018-11-21T20:26:34.577Z,12.93
2018-11-21T20:32:31.816Z,13.17
2018-11-21T20:35:20.608Z,13.10
2018-11-21T20:38:09.307Z,12.95
2018-11-21T20:40:57.703Z,12.98
2018-11-21T20:43:46.116Z,13.55
2018-11-21T20:46:35.413Z,13.83
2018-11-21T20:49:23.929Z,14.40
2018-11-21T20:52:12.369Z,14.33
2018-11-21T20:55:00.765Z,14.40
2018-11-21T20:57:49.174Z,14.73
2018-11-21T21:00:37.850Z,14.70
2018-11-21T21:03:26.579Z,14.28
2018-11-21T21:06:15.151Z,14.93
2018-11-21T21:09:23.260Z,14.87
2018-11-21T21:12:11.732Z,14.13
2018-11-21T21:15:00.350Z,15.13
2018-11-21T21:17:49.451Z,14.00
2018-11-21T21:20:37.892Z,14.03
2018-11-21T21:23:26.530Z,15.40
2018-11-21T21:26:14.931Z,15.30
2018-11-21T21:29:03.355Z,15.13
2018-11-21T21:31:51.796Z,15.00
2018-11-21T21:34:40.231Z,14.58
2018-11-21T21:37:28.952Z,14.57
2018-11-21T21:40:20.351Z,15.23
2018-11-21T21:46:15.995Z,14.75
